sensor_id;sensor_type;location;lat;lon;timestamp;pressure;altitude;pressure_sealevel;temperature;humidity
30302;BME280;17111;52.130;5.028;2023-02-19T00:00:03;101842.78;;;17.30;55.15
30302;BME280;17111;52.130;5.028;2023-02-19T00:02:30;101832.16;;;17.28;55.19
30302;BME280;17111;52.130;5.028;2023-02-19T00:04:56;101842.88;;;17.28;55.10
30302;BME280;17111;52.130;5.028;2023-02-19T00:07:23;101846.44;;;17.29;55.00
30302;BME280;17111;52.130;5.028;2023-02-19T00:09:49;101844.72;;;17.28;54.68
30302;BME280;17111;52.130;5.028;2023-02-19T00:12:16;101850.06;;;17.28;55.01
30302;BME280;17111;52.130;5.028;2023-02-19T00:14:43;101845.69;;;17.27;54.97
30302;BME280;17111;52.130;5.028;2023-02-19T00:17:09;101856.41;;;17.27;54.90
30302;BME280;17111;52.130;5.028;2023-02-19T00:19:36;101851.91;;;17.27;55.11
30302;BME280;17111;52.130;5.028;2023-02-19T00:22:02;101855.41;;;17.28;54.72
30302;BME280;17111;52.130;5.028;2023-02-19T00:24:29;101857.25;;;17.27;55.20
30302;BME280;17111;52.130;5.028;2023-02-19T00:26:55;101859.94;;;17.27;55.07
30302;BME280;17111;52.130;5.028;2023-02-19T00:29:22;101850.06;;;17.28;55.12
30302;BME280;17111;52.130;5.028;2023-02-19T00:31:50;101854.56;;;17.27;55.75
30302;BME280;17111;52.130;5.028;2023-02-19T00:34:17;101853.72;;;17.27;55.13
30302;BME280;17111;52.130;5.028;2023-02-19T00:36:43;101855.41;;;17.28;55.12
30302;BME280;17111;52.130;5.028;2023-02-19T00:39:13;101855.56;;;17.26;55.03
30302;BME280;17111;52.130;5.028;2023-02-19T00:41:41;101862.75;;;17.26;55.15
30302;BME280;17111;52.130;5.028;2023-02-19T00:44:09;101853.72;;;17.27;55.38
30302;BME280;17111;52.130;5.028;2023-02-19T00:46:43;101858.25;;;17.26;55.33
30302;BME280;17111;52.130;5.028;2023-02-19T00:49:20;101868.09;;;17.26;55.19
30302;BME280;17111;52.130;5.028;2023-02-19T00:51:48;101863.59;;;17.26;55.66
30302;BME280;17111;52.130;5.028;2023-02-19T00:54:16;101863.59;;;17.26;55.05
30302;BME280;17111;52.130;5.028;2023-02-19T00:56:42;101868.97;;;17.26;55.38
30302;BME280;17111;52.130;5.028;2023-02-19T00:59:09;101874.31;;;17.26;55.15
30302;BME280;17111;52.130;5.028;2023-02-19T01:01:36;101870.78;;;17.26;55.19
30302;BME280;17111;52.130;5.028;2023-02-19T01:04:03;101877.00;;;17.26;54.84
30302;BME280;17111;52.130;5.028;2023-02-19T01:06:32;101871.63;;;17.26;55.49
30302;BME280;17111;52.130;5.028;2023-02-19T01:09:00;101880.66;;;17.25;55.47
30302;BME280;17111;52.130;5.028;2023-02-19T01:11:26;101871.63;;;17.26;55.27
30302;BME280;17111;52.130;5.028;2023-02-19T01:13:57;101887.72;;;17.26;55.22
30302;BME280;17111;52.130;5.028;2023-02-19T01:16:23;101881.50;;;17.26;55.39
30302;BME280;17111;52.130;5.028;2023-02-19T01:18:50;101887.72;;;17.26;55.34
30302;BME280;17111;52.130;5.028;2023-02-19T01:21:20;101878.81;;;17.26;55.21
30302;BME280;17111;52.130;5.028;2023-02-19T01:23:48;101892.22;;;17.26;55.34
30302;BME280;17111;52.130;5.028;2023-02-19T01:26:20;101888.69;;;17.25;55.41
30302;BME280;17111;52.130;5.028;2023-02-19T01:28:47;101890.41;;;17.26;55.32
30302;BME280;17111;52.130;5.028;2023-02-19T01:31:22;101891.47;;;17.24;55.31
30302;BME280;17111;52.130;5.028;2023-02-19T01:33:51;101887.84;;;17.25;55.25
30302;BME280;17111;52.130;5.028;2023-02-19T01:36:18;101893.22;;;17.25;55.41
30302;BME280;17111;52.130;5.028;2023-02-19T01:38:46;101892.31;;;17.24;55.49
30302;BME280;17111;52.130;5.028;2023-02-19T01:41:15;101887.84;;;17.25;55.06
30302;BME280;17111;52.130;5.028;2023-02-19T01:46:43;101895.88;;;17.25;55.30
30302;BME280;17111;52.130;5.028;2023-02-19T01:49:14;101895.13;;;17.23;55.19
30302;BME280;17111;52.130;5.028;2023-02-19T01:51:47;101905.00;;;17.22;55.14
30302;BME280;17111;52.130;5.028;2023-02-19T01:54:20;101896.97;;;17.22;55.50
30302;BME280;17111;52.130;5.028;2023-02-19T01:56:48;101892.47;;;17.23;54.98
30302;BME280;17111;52.130;5.028;2023-02-19T01:59:15;101897.81;;;17.23;55.27
30302;BME280;17111;52.130;5.028;2023-02-19T02:01:42;101903.31;;;17.21;55.00
30302;BME280;17111;52.130;5.028;2023-02-19T02:04:11;101901.47;;;17.22;55.30
30302;BME280;17111;52.130;5.028;2023-02-19T02:09:09;101909.53;;;17.22;54.96
30302;BME280;17111;52.130;5.028;2023-02-19T02:11:54;101901.47;;;17.22;55.79
30302;BME280;17111;52.130;5.028;2023-02-19T02:14:24;101906.00;;;17.21;55.33
30302;BME280;17111;52.130;5.028;2023-02-19T02:17:30;101906.09;;;17.20;55.86
30302;BME280;17111;52.130;5.028;2023-02-19T02:23:39;101906.09;;;17.20;55.13
30302;BME280;17111;52.130;5.028;2023-02-19T02:32:24;101915.13;;;17.19;55.27
30302;BME280;17111;52.130;5.028;2023-02-19T02:35:22;101916.09;;;17.18;55.48
30302;BME280;17111;52.130;5.028;2023-02-19T02:37:50;101918.53;;;17.21;55.73
30302;BME280;17111;52.130;5.028;2023-02-19T02:40:19;101920.34;;;17.20;55.62
30302;BME280;17111;52.130;5.028;2023-02-19T02:42:46;101914.25;;;17.18;55.48
30302;BME280;17111;52.130;5.028;2023-02-19T02:45:29;101924.97;;;17.18;55.62
30302;BME280;17111;52.130;5.028;2023-02-19T02:48:28;101926.06;;;17.16;55.71
30302;BME280;17111;52.130;5.028;2023-02-19T02:51:22;101929.50;;;17.18;55.35
30302;BME280;17111;52.130;5.028;2023-02-19T02:56:49;101921.47;;;17.18;55.33
30302;BME280;17111;52.130;5.028;2023-02-19T02:59:18;101922.44;;;17.17;55.68
30302;BME280;17111;52.130;5.028;2023-02-19T03:01:57;101937.63;;;17.16;55.38
30302;BME280;17111;52.130;5.028;2023-02-19T03:07:35;101948.34;;;17.16;55.82
30302;BME280;17111;52.130;5.028;2023-02-19T03:10:04;101946.66;;;17.15;55.29
30302;BME280;17111;52.130;5.028;2023-02-19T03:12:34;101947.50;;;17.16;55.44
30302;BME280;17111;52.130;5.028;2023-02-19T03:15:25;101947.50;;;17.16;55.87
30302;BME280;17111;52.130;5.028;2023-02-19T03:18:13;101952.00;;;17.15;55.63
30302;BME280;17111;52.130;5.028;2023-02-19T03:21:00;101954.69;;;17.15;55.47
30302;BME280;17111;52.130;5.028;2023-02-19T03:23:30;101953.84;;;17.15;55.90
30302;BME280;17111;52.130;5.028;2023-02-19T03:26:18;101963.56;;;17.16;55.57
30302;BME280;17111;52.130;5.028;2023-02-19T03:28:46;101955.66;;;17.14;55.64
30302;BME280;17111;52.130;5.028;2023-02-19T03:31:36;101954.69;;;17.15;55.71
30302;BME280;17111;52.130;5.028;2023-02-19T03:34:10;101956.50;;;17.15;55.65
30302;BME280;17111;52.130;5.028;2023-02-19T03:36:47;101963.69;;;17.14;55.46
30302;BME280;17111;52.130;5.028;2023-02-19T03:39:19;101956.66;;;17.13;55.07
30302;BME280;17111;52.130;5.028;2023-02-19T03:42:14;101969.19;;;17.13;55.62
30302;BME280;17111;52.130;5.028;2023-02-19T03:45:20;101969.19;;;17.13;55.67
30302;BME280;17111;52.130;5.028;2023-02-19T03:47:49;101975.50;;;17.12;55.94
30302;BME280;17111;52.130;5.028;2023-02-19T03:55:58;101984.53;;;17.11;55.99
30302;BME280;17111;52.130;5.028;2023-02-19T03:59:02;101985.38;;;17.11;56.09
30302;BME280;17111;52.130;5.028;2023-02-19T04:04:06;101989.75;;;17.12;55.70
30302;BME280;17111;52.130;5.028;2023-02-19T04:06:35;101989.75;;;17.12;55.49
30302;BME280;17111;52.130;5.028;2023-02-19T04:09:05;101989.75;;;17.12;55.91
30302;BME280;17111;52.130;5.028;2023-02-19T04:11:34;101993.31;;;17.13;55.40
30302;BME280;17111;52.130;5.028;2023-02-19T04:14:07;101996.09;;;17.11;55.61
30302;BME280;17111;52.130;5.028;2023-02-19T04:16:36;102002.41;;;17.10;55.89
30302;BME280;17111;52.130;5.028;2023-02-19T04:19:08;102004.88;;;17.13;55.46
30302;BME280;17111;52.130;5.028;2023-02-19T04:21:36;102003.13;;;17.12;55.16
30302;BME280;17111;52.130;5.028;2023-02-19T04:24:12;102004.97;;;17.12;55.70
30302;BME280;17111;52.130;5.028;2023-02-19T04:26:40;102013.00;;;17.12;55.71
30302;BME280;17111;52.130;5.028;2023-02-19T04:29:07;102013.97;;;17.11;55.67
30302;BME280;17111;52.130;5.028;2023-02-19T04:31:34;102015.81;;;17.10;55.17
30302;BME280;17111;52.130;5.028;2023-02-19T04:34:02;102014.84;;;17.11;55.65
30302;BME280;17111;52.130;5.028;2023-02-19T04:36:30;102028.34;;;17.10;55.30
30302;BME280;17111;52.130;5.028;2023-02-19T04:38:56;102029.22;;;17.10;55.54
30302;BME280;17111;52.130;5.028;2023-02-19T04:41:23;102041.75;;;17.10;55.71
30302;BME280;17111;52.130;5.028;2023-02-19T04:43:50;102048.81;;;17.11;55.59
30302;BME280;17111;52.130;5.028;2023-02-19T04:46:16;102047.09;;;17.10;55.57
30302;BME280;17111;52.130;5.028;2023-02-19T04:48:43;102056.97;;;17.09;55.67
30302;BME280;17111;52.130;5.028;2023-02-19T04:51:10;102061.47;;;17.09;55.37
30302;BME280;17111;52.130;5.028;2023-02-19T04:53:37;102066.84;;;17.09;55.33
30302;BME280;17111;52.130;5.028;2023-02-19T04:56:09;102065.97;;;17.08;55.31
30302;BME280;17111;52.130;5.028;2023-02-19T04:58:36;102062.34;;;17.09;55.70
30302;BME280;17111;52.130;5.028;2023-02-19T05:01:03;102069.53;;;17.09;55.98
30302;BME280;17111;52.130;5.028;2023-02-19T05:03:30;102064.16;;;17.09;55.22
30302;BME280;17111;52.130;5.028;2023-02-19T05:05:56;102071.31;;;17.08;55.40
30302;BME280;17111;52.130;5.028;2023-02-19T05:08:23;102079.34;;;17.08;55.59
30302;BME280;17111;52.130;5.028;2023-02-19T05:10:49;102088.28;;;17.09;55.56
30302;BME280;17111;52.130;5.028;2023-02-19T05:13:16;102083.84;;;17.08;55.60
30302;BME280;17111;52.130;5.028;2023-02-19T05:15:53;102082.16;;;17.07;55.50
30302;BME280;17111;52.130;5.028;2023-02-19T05:18:20;102090.06;;;17.08;55.37
30302;BME280;17111;52.130;5.028;2023-02-19T05:20:46;102088.38;;;17.07;55.42
30302;BME280;17111;52.130;5.028;2023-02-19T05:23:13;102099.09;;;17.07;55.83
30302;BME280;17111;52.130;5.028;2023-02-19T05:25:39;102100.78;;;17.08;55.78
30302;BME280;17111;52.130;5.028;2023-02-19T05:28:06;102108.94;;;17.07;55.41
30302;BME280;17111;52.130;5.028;2023-02-19T05:30:47;102096.31;;;17.09;55.68
30302;BME280;17111;52.130;5.028;2023-02-19T05:33:14;102102.75;;;17.06;55.68
30302;BME280;17111;52.130;5.028;2023-02-19T05:35:51;102098.34;;;17.05;55.41
30302;BME280;17111;52.130;5.028;2023-02-19T05:38:18;102100.06;;;17.06;55.79
30302;BME280;17111;52.130;5.028;2023-02-19T05:40:45;102102.75;;;17.06;55.56
30302;BME280;17111;52.130;5.028;2023-02-19T05:43:13;102104.44;;;17.07;55.77
30302;BME280;17111;52.130;5.028;2023-02-19T05:45:39;102102.75;;;17.06;55.78
30302;BME280;17111;52.130;5.028;2023-02-19T05:48:07;102095.69;;;17.05;56.02
30302;BME280;17111;52.130;5.028;2023-02-19T05:50:35;102094.69;;;17.06;55.83
30302;BME280;17111;52.130;5.028;2023-02-19T05:53:05;102101.03;;;17.05;55.48
30302;BME280;17111;52.130;5.028;2023-02-19T05:55:35;102111.75;;;17.05;55.65
30302;BME280;17111;52.130;5.028;2023-02-19T05:58:01;102121.50;;;17.06;55.85
30302;BME280;17111;52.130;5.028;2023-02-19T06:00:29;102112.69;;;17.04;55.09
30302;BME280;17111;52.130;5.028;2023-02-19T06:02:55;102121.63;;;17.05;55.37
30302;BME280;17111;52.130;5.028;2023-02-19T06:05:22;102109.94;;;17.06;55.39
30302;BME280;17111;52.130;5.028;2023-02-19T06:07:49;102120.72;;;17.04;55.59
30302;BME280;17111;52.130;5.028;2023-02-19T06:10:16;102128.78;;;17.04;55.86
30302;BME280;17111;52.130;5.028;2023-02-19T06:12:43;102133.19;;;17.05;55.39
30302;BME280;17111;52.130;5.028;2023-02-19T06:15:10;102142.16;;;17.04;55.62
30302;BME280;17111;52.130;5.028;2023-02-19T06:17:37;102144.00;;;17.03;55.29
30302;BME280;17111;52.130;5.028;2023-02-19T06:20:03;102143.91;;;17.05;55.77
30302;BME280;17111;52.130;5.028;2023-02-19T06:22:30;102148.41;;;17.05;55.18
30302;BME280;17111;52.130;5.028;2023-02-19T06:24:56;102167.25;;;17.03;55.45
30302;BME280;17111;52.130;5.028;2023-02-19T06:27:23;102163.72;;;17.02;55.85
30302;BME280;17111;52.130;5.028;2023-02-19T06:29:50;102162.03;;;17.01;55.81
30302;BME280;17111;52.130;5.028;2023-02-19T06:32:16;102169.94;;;17.03;55.25
30302;BME280;17111;52.130;5.028;2023-02-19T06:34:43;102162.88;;;17.02;55.46
30302;BME280;17111;52.130;5.028;2023-02-19T06:37:10;102162.13;;;17.00;55.85
30302;BME280;17111;52.130;5.028;2023-02-19T06:39:36;102169.22;;;17.01;55.19
30302;BME280;17111;52.130;5.028;2023-02-19T06:42:03;102172.81;;;17.00;55.79
30302;BME280;17111;52.130;5.028;2023-02-19T06:44:29;102167.47;;;17.00;55.66
30302;BME280;17111;52.130;5.028;2023-02-19T06:46:56;102172.81;;;17.00;55.58
30302;BME280;17111;52.130;5.028;2023-02-19T06:49:22;102179.06;;;17.00;55.91
30302;BME280;17111;52.130;5.028;2023-02-19T06:51:49;102188.06;;;16.99;55.52
30302;BME280;17111;52.130;5.028;2023-02-19T06:54:15;102191.56;;;17.00;55.68
30302;BME280;17111;52.130;5.028;2023-02-19T06:56:42;102196.94;;;17.00;55.63
30302;BME280;17111;52.130;5.028;2023-02-19T06:59:14;102195.13;;;17.00;55.27
30302;BME280;17111;52.130;5.028;2023-02-19T07:01:44;102203.19;;;17.00;55.91
30302;BME280;17111;52.130;5.028;2023-02-19T07:04:11;102199.53;;;17.01;55.60
30302;BME280;17111;52.130;5.028;2023-02-19T07:06:38;102211.09;;;17.02;55.85
30302;BME280;17111;52.130;5.028;2023-02-19T07:09:05;102211.09;;;17.02;55.89
30302;BME280;17111;52.130;5.028;2023-02-19T07:11:34;102219.84;;;17.04;55.48
30302;BME280;17111;52.130;5.028;2023-02-19T07:14:03;102226.19;;;17.03;55.66
30302;BME280;17111;52.130;5.028;2023-02-19T07:16:30;102227.03;;;17.03;55.68
30302;BME280;17111;52.130;5.028;2023-02-19T07:18:57;102230.56;;;17.04;55.70
30302;BME280;17111;52.130;5.028;2023-02-19T07:21:24;102231.44;;;17.05;55.50
30302;BME280;17111;52.130;5.028;2023-02-19T07:23:51;102240.31;;;17.05;55.66
30302;BME280;17111;52.130;5.028;2023-02-19T07:26:19;102240.31;;;17.05;55.86
30302;BME280;17111;52.130;5.028;2023-02-19T07:28:47;102240.31;;;17.05;55.33
30302;BME280;17111;52.130;5.028;2023-02-19T07:31:16;102254.56;;;17.06;55.76
30302;BME280;17111;52.130;5.028;2023-02-19T07:33:43;102259.94;;;17.06;55.68
30302;BME280;17111;52.130;5.028;2023-02-19T07:36:11;102260.78;;;17.06;55.94
30302;BME280;17111;52.130;5.028;2023-02-19T07:38:38;102256.41;;;17.05;55.66
30302;BME280;17111;52.130;5.028;2023-02-19T07:41:05;102264.44;;;17.05;55.94
30302;BME280;17111;52.130;5.028;2023-02-19T07:43:34;102271.50;;;17.06;55.75
30302;BME280;17111;52.130;5.028;2023-02-19T07:46:02;102276.00;;;17.06;55.52
30302;BME280;17111;52.130;5.028;2023-02-19T07:48:29;102266.13;;;17.06;56.01
30302;BME280;17111;52.130;5.028;2023-02-19T07:50:58;102274.31;;;17.05;55.51
30302;BME280;17111;52.130;5.028;2023-02-19T07:53:26;102288.53;;;17.05;55.57
30302;BME280;17111;52.130;5.028;2023-02-19T07:55:53;102284.03;;;17.06;55.58
30302;BME280;17111;52.130;5.028;2023-02-19T07:58:19;102291.22;;;17.05;55.64
30302;BME280;17111;52.130;5.028;2023-02-19T08:00:46;102295.59;;;17.06;55.95
30302;BME280;17111;52.130;5.028;2023-02-19T08:03:12;102301.94;;;17.05;55.43
30302;BME280;17111;52.130;5.028;2023-02-19T08:05:41;102297.53;;;17.04;55.69
30302;BME280;17111;52.130;5.028;2023-02-19T08:08:12;102293.91;;;17.05;55.10
30302;BME280;17111;52.130;5.028;2023-02-19T08:10:39;102288.53;;;17.05;55.70
30302;BME280;17111;52.130;5.028;2023-02-19T08:13:27;102300.22;;;17.04;56.02
30302;BME280;17111;52.130;5.028;2023-02-19T08:16:08;102306.53;;;17.03;55.93
30302;BME280;17111;52.130;5.028;2023-02-19T08:18:47;102317.03;;;17.06;55.80
30302;BME280;17111;52.130;5.028;2023-02-19T08:21:14;102321.53;;;17.06;55.79
30302;BME280;17111;52.130;5.028;2023-02-19T08:23:43;102310.81;;;17.06;55.23
30302;BME280;17111;52.130;5.028;2023-02-19T08:26:11;102315.34;;;17.05;55.40
30302;BME280;17111;52.130;5.028;2023-02-19T08:28:38;102323.38;;;17.05;55.30
30302;BME280;17111;52.130;5.028;2023-02-19T08:31:05;102324.22;;;17.06;56.34
30302;BME280;17111;52.130;5.028;2023-02-19T08:33:33;102336.63;;;17.07;55.90
30302;BME280;17111;52.130;5.028;2023-02-19T08:36:04;102342.97;;;17.06;55.80
30302;BME280;17111;52.130;5.028;2023-02-19T08:38:32;102347.34;;;17.07;55.79
30302;BME280;17111;52.130;5.028;2023-02-19T08:41:08;102359.91;;;17.06;55.12
30302;BME280;17111;52.130;5.028;2023-02-19T08:43:36;102351.75;;;17.08;55.53
30302;BME280;17111;52.130;5.028;2023-02-19T08:46:03;102361.59;;;17.07;55.58
30302;BME280;17111;52.130;5.028;2023-02-19T08:48:29;102351.75;;;17.08;55.64
30302;BME280;17111;52.130;5.028;2023-02-19T08:50:58;102345.53;;;17.07;55.87
30302;BME280;17111;52.130;5.028;2023-02-19T08:53:25;102350.88;;;17.07;55.64
30302;BME280;17111;52.130;5.028;2023-02-19T08:55:52;102343.69;;;17.08;55.48
30302;BME280;17111;52.130;5.028;2023-02-19T08:58:18;102349.91;;;17.08;55.35
30302;BME280;17111;52.130;5.028;2023-02-19T09:00:45;102350.88;;;17.07;55.81
30302;BME280;17111;52.130;5.028;2023-02-19T09:03:11;102357.09;;;17.08;55.61
30302;BME280;17111;52.130;5.028;2023-02-19T09:05:38;102357.94;;;17.08;55.29
30302;BME280;17111;52.130;5.028;2023-02-19T09:08:05;102353.47;;;17.09;55.65
30302;BME280;17111;52.130;5.028;2023-02-19T09:10:31;102340.94;;;17.09;55.05
30302;BME280;17111;52.130;5.028;2023-02-19T09:12:58;102356.03;;;17.10;56.05
30302;BME280;17111;52.130;5.028;2023-02-19T09:15:25;102371.91;;;17.13;55.83
30302;BME280;17111;52.130;5.028;2023-02-19T09:17:51;102365.56;;;17.14;56.14
30302;BME280;17111;52.130;5.028;2023-02-19T09:20:18;102377.00;;;17.16;56.19
30302;BME280;17111;52.130;5.028;2023-02-19T09:22:45;102375.09;;;17.18;55.89
30302;BME280;17111;52.130;5.028;2023-02-19T09:25:12;102376.78;;;17.19;56.01
30302;BME280;17111;52.130;5.028;2023-02-19T09:27:38;102387.41;;;17.21;56.16
30302;BME280;17111;52.130;5.028;2023-02-19T09:30:05;102396.31;;;17.21;55.97
30302;BME280;17111;52.130;5.028;2023-02-19T09:32:32;102411.53;;;17.21;55.67
30302;BME280;17111;52.130;5.028;2023-02-19T09:34:59;102415.06;;;17.21;55.76
30302;BME280;17111;52.130;5.028;2023-02-19T09:37:26;102424.81;;;17.22;56.06
30302;BME280;17111;52.130;5.028;2023-02-19T09:39:54;102423.97;;;17.22;56.01
30302;BME280;17111;52.130;5.028;2023-02-19T09:42:26;102431.16;;;17.21;55.80
30302;BME280;17111;52.130;5.028;2023-02-19T09:44:57;102432.84;;;17.22;55.75
30302;BME280;17111;52.130;5.028;2023-02-19T09:47:27;102431.88;;;17.23;55.62
30302;BME280;17111;52.130;5.028;2023-02-19T09:49:57;102441.75;;;17.23;55.96
30302;BME280;17111;52.130;5.028;2023-02-19T09:52:39;102447.09;;;17.23;55.92
30302;BME280;17111;52.130;5.028;2023-02-19T09:55:17;102448.94;;;17.22;55.75
30302;BME280;17111;52.130;5.028;2023-02-19T09:57:45;102459.66;;;17.22;55.79
30302;BME280;17111;52.130;5.028;2023-02-19T10:00:20;102460.63;;;17.21;55.47
30302;BME280;17111;52.130;5.028;2023-02-19T10:02:54;102458.78;;;17.22;55.51
30302;BME280;17111;52.130;5.028;2023-02-19T10:05:25;102460.50;;;17.23;55.61
30302;BME280;17111;52.130;5.028;2023-02-19T10:07:53;102466.84;;;17.22;55.48
30302;BME280;17111;52.130;5.028;2023-02-19T10:10:33;102475.72;;;17.22;55.28
30302;BME280;17111;52.130;5.028;2023-02-19T10:13:28;102476.56;;;17.23;55.77
30302;BME280;17111;52.130;5.028;2023-02-19T10:15:57;102480.09;;;17.23;55.67
30302;BME280;17111;52.130;5.028;2023-02-19T10:18:27;102485.47;;;17.23;55.27
30302;BME280;17111;52.130;5.028;2023-02-19T10:20:55;102497.16;;;17.22;55.46
30302;BME280;17111;52.130;5.028;2023-02-19T10:23:23;102485.59;;;17.22;55.69
30302;BME280;17111;52.130;5.028;2023-02-19T10:25:53;102498.97;;;17.22;55.55
30302;BME280;17111;52.130;5.028;2023-02-19T10:28:24;102501.66;;;17.22;55.44
30302;BME280;17111;52.130;5.028;2023-02-19T10:30:55;102505.41;;;17.19;55.66
30302;BME280;17111;52.130;5.028;2023-02-19T10:33:23;102516.88;;;17.21;55.64
30302;BME280;17111;52.130;5.028;2023-02-19T10:35:54;102515.06;;;17.22;55.81
30302;BME280;17111;52.130;5.028;2023-02-19T10:38:39;102519.56;;;17.21;55.38
30302;BME280;17111;52.130;5.028;2023-02-19T10:41:15;102522.25;;;17.21;55.93
30302;BME280;17111;52.130;5.028;2023-02-19T10:44:02;102525.78;;;17.22;55.97
30302;BME280;17111;52.130;5.028;2023-02-19T10:46:41;102512.47;;;17.20;55.47
30302;BME280;17111;52.130;5.028;2023-02-19T10:52:26;102527.50;;;17.23;55.84
30302;BME280;17111;52.130;5.028;2023-02-19T10:55:19;102524.94;;;17.21;55.27
30302;BME280;17111;52.130;5.028;2023-02-19T10:57:50;102522.97;;;17.23;55.29
30302;BME280;17111;52.130;5.028;2023-02-19T11:00:25;102523.09;;;17.22;55.44
30302;BME280;17111;52.130;5.028;2023-02-19T11:03:13;102515.06;;;17.22;55.51
30302;BME280;17111;52.130;5.028;2023-02-19T11:05:58;102519.44;;;17.23;55.40
30302;BME280;17111;52.130;5.028;2023-02-19T11:08:26;102522.13;;;17.23;55.26
30302;BME280;17111;52.130;5.028;2023-02-19T11:10:52;102514.09;;;17.23;55.38
30302;BME280;17111;52.130;5.028;2023-02-19T11:13:29;102526.63;;;17.22;55.61
30302;BME280;17111;52.130;5.028;2023-02-19T11:15:58;102529.19;;;17.24;55.22
30302;BME280;17111;52.130;5.028;2023-02-19T11:18:30;102532.84;;;17.23;55.32
30302;BME280;17111;52.130;5.028;2023-02-19T11:20:59;102531.03;;;17.23;55.02
30302;BME280;17111;52.130;5.028;2023-02-19T11:23:34;102540.88;;;17.23;55.43
30302;BME280;17111;52.130;5.028;2023-02-19T11:26:12;102546.25;;;17.23;55.51
30302;BME280;17111;52.130;5.028;2023-02-19T11:28:42;102542.59;;;17.24;55.41
30302;BME280;17111;52.130;5.028;2023-02-19T11:33:52;102538.09;;;17.24;55.07
30302;BME280;17111;52.130;5.028;2023-02-19T11:38:48;102549.69;;;17.25;55.26
30302;BME280;17111;52.130;5.028;2023-02-19T12:12:10;102550.09;;;17.32;54.89
30302;BME280;17111;52.130;5.028;2023-02-19T12:20:25;102559.88;;;17.33;55.15
30302;BME280;17111;52.130;5.028;2023-02-19T12:23:22;102543.88;;;17.31;55.24
30302;BME280;17111;52.130;5.028;2023-02-19T12:31:23;102550.09;;;17.32;55.06
30302;BME280;17111;52.130;5.028;2023-02-19T12:45:14;102563.81;;;17.27;54.81
30302;BME280;17111;52.130;5.028;2023-02-19T12:47:43;102574.53;;;17.27;54.72
30302;BME280;17111;52.130;5.028;2023-02-19T12:50:15;102572.84;;;17.26;55.09
30302;BME280;17111;52.130;5.028;2023-02-19T12:52:48;102592.44;;;17.26;54.89
30302;BME280;17111;52.130;5.028;2023-02-19T12:55:28;102589.00;;;17.24;54.79
30302;BME280;17111;52.130;5.028;2023-02-19T12:57:58;102595.25;;;17.25;55.42
30302;BME280;17111;52.130;5.028;2023-02-19T13:00:32;102608.72;;;17.23;54.99
30302;BME280;17111;52.130;5.028;2023-02-19T13:03:17;102609.72;;;17.22;54.89
30302;BME280;17111;52.130;5.028;2023-02-19T13:09:13;102625.78;;;17.22;54.98
30302;BME280;17111;52.130;5.028;2023-02-19T13:11:48;102632.97;;;17.22;54.83
30302;BME280;17111;52.130;5.028;2023-02-19T13:14:31;102632.97;;;17.22;55.22
30302;BME280;17111;52.130;5.028;2023-02-19T13:17:05;102640.16;;;17.21;55.37
30302;BME280;17111;52.130;5.028;2023-02-19T13:19:36;102641.84;;;17.22;55.22
30302;BME280;17111;52.130;5.028;2023-02-19T13:22:23;102636.69;;;17.19;55.15
30302;BME280;17111;52.130;5.028;2023-02-19T13:25:13;102640.03;;;17.23;55.05
30302;BME280;17111;52.130;5.028;2023-02-19T13:30:41;102641.09;;;17.20;55.25
30302;BME280;17111;52.130;5.028;2023-02-19T13:33:32;102658.13;;;17.19;55.26
30302;BME280;17111;52.130;5.028;2023-02-19T13:36:08;102662.53;;;17.20;54.99
30302;BME280;17111;52.130;5.028;2023-02-19T13:38:38;102678.59;;;17.20;54.78
30302;BME280;17111;52.130;5.028;2023-02-19T13:41:16;102676.91;;;17.19;54.91
30302;BME280;17111;52.130;5.028;2023-02-19T13:43:44;102673.25;;;17.20;54.92
30302;BME280;17111;52.130;5.028;2023-02-19T13:46:14;102677.66;;;17.21;55.39
30302;BME280;17111;52.130;5.028;2023-02-19T13:48:45;102671.47;;;17.21;55.34
30302;BME280;17111;52.130;5.028;2023-02-19T13:58:57;102692.78;;;17.22;55.82
30302;BME280;17111;52.130;5.028;2023-02-19T14:12:04;102695.13;;;17.27;55.71
30302;BME280;17111;52.130;5.028;2023-02-19T14:14:44;102688.53;;;17.33;56.02
30302;BME280;17111;52.130;5.028;2023-02-19T14:17:39;102683.91;;;17.35;55.91
30302;BME280;17111;52.130;5.028;2023-02-19T14:28:02;102685.22;;;17.42;55.89
30302;BME280;17111;52.130;5.028;2023-02-19T14:30:46;102678.88;;;17.43;55.78
30302;BME280;17111;52.130;5.028;2023-02-19T14:33:16;102682.34;;;17.45;55.82
30302;BME280;17111;52.130;5.028;2023-02-19T14:35:45;102667.09;;;17.45;56.08
30302;BME280;17111;52.130;5.028;2023-02-19T14:38:18;102665.16;;;17.47;56.11
30302;BME280;17111;52.130;5.028;2023-02-19T14:40:46;102647.25;;;17.48;55.94
30302;BME280;17111;52.130;5.028;2023-02-19T14:43:16;102651.66;;;17.49;55.74
30302;BME280;17111;52.130;5.028;2023-02-19T14:46:08;102651.66;;;17.49;56.07
30302;BME280;17111;52.130;5.028;2023-02-19T14:48:43;102657.66;;;17.52;55.85
30302;BME280;17111;52.130;5.028;2023-02-19T14:51:36;102653.06;;;17.55;55.88
30302;BME280;17111;52.130;5.028;2023-02-19T14:54:09;102652.19;;;17.54;55.63
30302;BME280;17111;52.130;5.028;2023-02-19T14:56:44;102644.88;;;17.56;55.15
30302;BME280;17111;52.130;5.028;2023-02-19T15:01:37;102641.28;;;17.57;55.33
30302;BME280;17111;52.130;5.028;2023-02-19T15:04:05;102642.00;;;17.59;55.02
30302;BME280;17111;52.130;5.028;2023-02-19T15:06:33;102631.06;;;17.62;55.26
30302;BME280;17111;52.130;5.028;2023-02-19T15:09:05;102625.50;;;17.65;55.01
30302;BME280;17111;52.130;5.028;2023-02-19T15:11:33;102631.59;;;17.67;54.77
30302;BME280;17111;52.130;5.028;2023-02-19T15:14:03;102649.19;;;17.71;54.69
30302;BME280;17111;52.130;5.028;2023-02-19T15:16:33;102643.75;;;17.73;54.76